Time;durP1;ratioP1;P1;durP2;ratioP2;P2;SDS_P1;SDS_P2;PMS_P1;PMS_P2;Temp;Humidity;BMP_temperature;BMP_pressure;BME280_temperature;BME280_humidity;BME280_pressure;Samples;Min_cycle;Max_cycle;Signal;HPM_P1;HPM_P2
2022/11/13 00:00:25;;;;;;;;;60.25;47.00;;;;;12.35;77.75;102119.16;5033079;28;46103;-70
2022/11/13 00:02:50;;;;;;;;;68.25;51.25;;;;;12.41;77.52;102127.78;5032422;27;45328;-70
2022/11/13 00:05:16;;;;;;;;;65.00;51.50;;;;;12.36;77.92;102120.91;5071527;27;45424;-71
2022/11/13 00:07:41;;;;;;;;;68.00;53.00;;;;;12.26;77.55;102107.06;5025668;27;45509;-69
2022/11/13 00:10:07;;;;;;;;;59.00;49.50;;;;;12.23;78.09;102104.53;5031400;28;46311;-70
2022/11/13 00:12:32;;;;;;;;;67.00;54.75;;;;;12.38;78.69;102129.75;5031508;28;45448;-71
2022/11/13 00:14:57;;;;;;;;;71.00;55.25;;;;;12.35;77.90;102125.38;5031347;28;45477;-71
2022/11/13 00:17:23;;;;;;;;;69.50;56.50;;;;;12.00;77.55;102077.00;5031796;28;45396;-71
2022/11/13 00:19:48;;;;;;;;;64.00;52.50;;;;;12.22;77.19;102117.03;5028793;27;45445;-70
2022/11/13 00:22:14;;;;;;;;;69.75;55.00;;;;;12.29;76.56;102125.66;5031378;28;45461;-71
2022/11/13 00:24:39;;;;;;;;;68.50;55.75;;;;;12.28;77.74;102126.59;5032354;28;45489;-71
2022/11/13 00:27:05;;;;;;;;;62.50;50.50;;;;;12.24;77.27;102123.19;5083904;27;45470;-72
2022/11/13 00:29:30;;;;;;;;;69.25;55.00;;;;;12.23;77.12;102125.94;5056572;27;45909;-68
2022/11/13 00:31:56;;;;;;;;;74.50;60.75;;;;;12.21;77.48;102117.94;5071126;27;45368;-68
2022/11/13 00:34:21;;;;;;;;;82.00;67.50;;;;;12.15;77.13;102098.63;5053815;28;45245;-70
2022/11/13 00:36:46;;;;;;;;;74.25;59.00;;;;;12.21;76.52;102114.41;5035186;28;45409;-70
2022/11/13 00:39:12;;;;;;;;;73.00;59.25;;;;;11.93;76.60;102067.47;5052849;28;46107;-70
2022/11/13 00:41:37;;;;;;;;;69.00;55.00;;;;;12.08;76.45;102092.72;5052812;28;45325;-70
2022/11/13 00:44:02;;;;;;;;;71.75;58.50;;;;;12.17;76.04;102104.81;5048113;28;45387;-71
2022/11/13 00:46:29;;;;;;;;;73.00;56.25;;;;;12.10;76.22;102094.34;5033726;28;45342;-71
2022/11/13 00:48:54;;;;;;;;;75.25;62.50;;;;;12.07;76.33;102089.16;5033518;28;45438;-71
2022/11/13 00:51:20;;;;;;;;;77.25;64.00;;;;;11.85;76.61;102061.56;5032248;28;45408;-70
2022/11/13 00:53:46;;;;;;;;;89.50;79.25;;;;;12.04;75.77;102086.63;5033965;28;45335;-71
2022/11/13 00:56:11;;;;;;;;;79.75;69.00;;;;;12.01;76.07;102075.19;5034012;28;45424;-69
2022/11/13 00:58:37;;;;;;;;;65.75;53.75;;;;;12.04;76.12;102086.63;5032112;28;46321;-70
2022/11/13 01:01:09;;;;;;;;;66.50;53.00;;;;;12.05;75.48;102082.13;5033503;28;45294;-70
2022/11/13 01:03:35;;;;;;;;;70.00;55.00;;;;;12.02;75.63;102076.94;5014222;27;45369;-70
2022/11/13 01:06:16;;;;;;;;;66.50;52.00;;;;;12.00;76.25;102073.44;5032732;28;45360;-68
2022/11/13 01:08:41;;;;;;;;;60.75;50.25;;;;;12.01;75.83;102073.41;5030725;28;46239;-69
2022/11/13 01:11:15;;;;;;;;;64.75;50.75;;;;;11.89;75.29;102053.38;5013446;28;45487;-68
2022/11/13 01:13:44;;;;;;;;;56.00;45.75;;;;;11.86;75.91;102041.94;5023647;27;45368;-69
2022/11/13 01:16:11;;;;;;;;;69.00;53.00;;;;;11.93;75.75;102056.75;5011535;27;45404;-69
2022/11/13 01:18:38;;;;;;;;;64.25;51.00;;;;;11.85;76.18;102045.53;5011963;28;45541;-69
2022/11/13 01:21:06;;;;;;;;;58.00;47.50;;;;;11.76;76.06;102030.78;5010764;28;45330;-69
2022/11/13 01:23:31;;;;;;;;;55.50;45.00;;;;;11.87;75.92;102054.38;5023356;28;45357;-70
2022/11/13 01:26:09;;;;;;;;;60.50;50.00;;;;;11.85;75.47;102046.41;5012198;28;45457;-69
2022/11/13 01:28:35;;;;;;;;;69.00;54.75;;;;;11.83;76.62;102042.06;5012245;28;46449;-69
2022/11/13 01:31:04;;;;;;;;;69.75;56.25;;;;;11.83;75.98;102039.41;5027393;28;45374;-69
2022/11/13 01:33:29;;;;;;;;;67.00;52.25;;;;;11.75;75.63;102024.53;5028899;28;45583;-69
2022/11/13 01:36:08;;;;;;;;;72.50;58.00;;;;;11.79;75.59;102038.66;5031727;28;45531;-69
2022/11/13 01:38:34;;;;;;;;;78.75;62.75;;;;;11.78;76.23;102037.81;5031891;28;46512;-69
2022/11/13 01:40:59;;;;;;;;;78.25;62.00;;;;;11.51;76.40;101993.56;5029485;28;45547;-69
2022/11/13 01:43:27;;;;;;;;;71.75;59.00;;;;;11.62;76.42;102012.69;5030855;28;45436;-69
2022/11/13 01:45:59;;;;;;;;;76.25;60.25;;;;;11.74;76.88;102030.84;5030564;27;45549;-69
2022/11/13 01:48:42;;;;;;;;;78.75;63.50;;;;;11.69;76.73;102040.88;5031350;28;46625;-69
2022/11/13 01:51:15;;;;;;;;;77.00;60.25;;;;;11.39;76.23;101981.59;5031635;28;45425;-69
2022/11/13 01:53:43;;;;;;;;;75.50;60.50;;;;;11.50;76.25;101994.47;5031660;28;45326;-69
2022/11/13 01:56:09;;;;;;;;;78.75;62.00;;;;;11.71;76.10;102028.28;5031448;28;45547;-68
2022/11/13 01:58:34;;;;;;;;;73.50;57.50;;;;;11.66;76.36;102024.97;5030015;28;46368;-70
2022/11/13 02:01:00;;;;;;;;;64.50;53.25;;;;;11.45;76.75;102008.06;5031452;28;45462;-69
2022/11/13 02:03:25;;;;;;;;;69.50;55.75;;;;;11.49;76.44;102016.81;5030156;27;45311;-69
2022/11/13 02:05:52;;;;;;;;;74.00;57.50;;;;;11.52;76.43;102022.88;5031971;28;45374;-69
2022/11/13 02:08:18;;;;;;;;;65.25;54.00;;;;;11.44;76.88;101998.28;5031439;28;46168;-69
2022/11/13 02:10:43;;;;;;;;;72.50;56.75;;;;;11.48;75.74;101999.03;5031393;28;45323;-69
2022/11/13 02:13:09;;;;;;;;;69.50;57.25;;;;;11.44;75.50;102004.53;5030760;28;45497;-69
2022/11/13 02:15:35;;;;;;;;;66.25;53.75;;;;;11.48;75.14;102001.72;5029872;27;45827;-69
2022/11/13 02:18:01;;;;;;;;;67.50;53.75;;;;;11.51;75.33;101991.78;5002235;28;46977;-69
2022/11/13 02:20:39;;;;;;;;;68.00;55.00;;;;;11.43;75.28;101992.09;5031638;28;45349;-69
2022/11/13 02:23:21;;;;;;;;;65.00;52.25;;;;;11.39;75.12;101982.47;5031904;28;45354;-69
2022/11/13 02:25:51;;;;;;;;;64.00;52.25;;;;;11.42;75.33;101990.34;5031444;28;45292;-69
2022/11/13 02:28:16;;;;;;;;;62.25;51.25;;;;;11.21;75.11;101961.88;5030640;27;47352;-69
2022/11/13 02:30:41;;;;;;;;;59.50;48.50;;;;;11.35;75.23;101988.00;5010177;28;45337;-69
2022/11/13 02:33:24;;;;;;;;;60.75;50.25;;;;;11.37;74.92;101991.50;5011501;28;45340;-69
2022/11/13 02:35:50;;;;;;;;;57.00;46.50;;;;;11.27;74.27;101988.34;5011736;28;45313;-70
2022/11/13 02:38:16;;;;;;;;;60.00;47.75;;;;;11.30;73.80;101985.53;5011723;28;45344;-69
2022/11/13 02:40:41;;;;;;;;;59.50;50.00;;;;;10.66;73.64;101874.31;5011885;27;45435;-69
2022/11/13 02:43:07;;;;;;;;;23.00;21.25;;;;;11.18;74.13;101975.38;5011643;28;45316;-69
2022/11/13 02:45:32;;;;;;;;;53.75;45.00;;;;;11.26;74.21;101995.47;5010271;28;45544;-68
2022/11/13 02:48:00;;;;;;;;;54.00;45.50;;;;;11.25;74.15;101993.72;4992614;28;47343;-68
2022/11/13 02:50:26;;;;;;;;;49.25;42.00;;;;;10.90;74.98;101934.66;5011141;28;45342;-67
2022/11/13 02:52:52;;;;;;;;;55.00;46.25;;;;;11.21;74.26;101986.78;5011341;28;45407;-69
2022/11/13 02:55:17;;;;;;;;;43.00;37.00;;;;;11.15;74.18;101983.50;5010757;27;45469;-69
2022/11/13 02:57:42;;;;;;;;;35.75;33.50;;;;;11.10;74.03;101975.69;5011205;28;46621;-69
2022/11/13 03:00:08;;;;;;;;;48.75;40.25;;;;;11.18;74.37;101996.75;5028288;28;45378;-70
2022/11/13 03:02:34;;;;;;;;;38.00;35.00;;;;;11.02;74.10;101984.00;5029033;28;45511;-69
2022/11/13 03:04:59;;;;;;;;;45.00;39.75;;;;;10.81;74.17;101943.06;5030120;28;45507;-69
2022/11/13 03:07:24;;;;;;;;;53.50;42.50;;;;;11.02;73.62;101985.84;5031079;28;45534;-69
2022/11/13 03:09:50;;;;;;;;;45.25;38.00;;;;;11.00;74.16;101999.25;5030656;28;45353;-69
2022/11/13 03:12:15;;;;;;;;;55.50;41.25;;;;;10.94;73.79;101994.16;5030841;28;45270;-69
2022/11/13 03:14:40;;;;;;;;;48.75;41.00;;;;;10.73;74.33;101967.41;5030931;27;45432;-69
2022/11/13 03:17:06;;;;;;;;;43.75;37.50;;;;;10.88;74.56;101994.41;5012726;28;46476;-69
2022/11/13 03:19:31;;;;;;;;;44.50;39.50;;;;;10.89;74.30;102007.69;5031232;27;45424;-69
2022/11/13 03:21:57;;;;;;;;;47.75;41.50;;;;;10.89;73.94;101997.00;5030746;28;45758;-69
2022/11/13 03:24:22;;;;;;;;;41.50;36.25;;;;;10.90;74.24;101987.19;5030448;28;45466;-69
2022/11/13 03:26:47;;;;;;;;;46.25;39.75;;;;;10.93;74.33;101989.72;5029991;27;46340;-69
2022/11/13 03:29:14;;;;;;;;;51.75;39.75;;;;;10.88;74.09;101983.75;5012226;27;46064;-69
2022/11/13 03:31:39;;;;;;;;;45.25;39.00;;;;;10.88;74.00;101983.75;5030596;28;45402;-69
2022/11/13 03:34:04;;;;;;;;;45.75;41.25;;;;;10.74;74.43;101970.94;5030707;27;45280;-69
2022/11/13 03:36:30;;;;;;;;;49.00;38.25;;;;;10.79;74.20;101974.28;5030486;28;45337;-69
2022/11/13 03:38:56;;;;;;;;;51.25;41.50;;;;;10.75;75.08;101965.53;5030590;28;45374;-69
2022/11/13 03:41:22;;;;;;;;;41.00;37.25;;;;;10.77;74.72;101963.69;5030875;28;45288;-69
2022/11/13 03:43:47;;;;;;;;;43.00;37.25;;;;;10.52;74.81;101933.56;5030279;28;45277;-69
2022/11/13 03:46:13;;;;;;;;;41.75;37.75;;;;;10.60;74.71;101942.13;5030076;28;45348;-69
2022/11/13 03:48:38;;;;;;;;;47.25;40.00;;;;;10.70;74.97;101955.97;5030196;28;45376;-69
2022/11/13 03:51:04;;;;;;;;;44.75;39.75;;;;;10.80;74.78;101965.34;5030215;27;45449;-68
2022/11/13 03:53:29;;;;;;;;;45.25;37.25;;;;;10.55;74.86;101918.31;5028961;28;45552;-69
2022/11/13 03:55:55;;;;;;;;;42.00;35.75;;;;;10.83;75.36;101959.03;5030311;28;46295;-69
2022/11/13 03:58:20;;;;;;;;;36.00;33.50;;;;;10.85;74.61;101962.47;5029980;28;45341;-69
2022/11/13 04:00:48;;;;;;;;;47.00;34.50;;;;;10.86;75.20;101961.56;5029088;28;45466;-69
2022/11/13 04:03:13;;;;;;;;;32.00;30.00;;;;;10.84;74.95;101961.63;5030612;28;45406;-69
2022/11/13 04:05:41;;;;;;;;;37.25;32.50;;;;;10.66;75.30;101933.91;5033280;28;45617;-70
2022/11/13 04:08:06;;;;;;;;;36.25;33.00;;;;;10.88;74.77;101967.72;5033073;28;45392;-70
2022/11/13 04:10:32;;;;;;;;;40.75;36.00;;;;;10.89;74.85;101956.97;5033304;28;45359;-69
2022/11/13 04:12:57;;;;;;;;;33.00;30.00;;;;;10.82;75.46;101942.13;5033478;28;45287;-69
2022/11/13 04:15:22;;;;;;;;;29.50;27.75;;;;;10.81;75.44;101924.41;5032835;28;45252;-68
2022/11/13 04:17:49;;;;;;;;;34.75;32.25;;;;;10.96;75.11;101960.25;5015014;28;45383;-68
2022/11/13 04:20:15;;;;;;;;;37.00;33.50;;;;;10.96;75.39;101946.03;5032116;28;45384;-69
2022/11/13 04:22:40;;;;;;;;;35.25;28.25;;;;;10.96;75.29;101922.00;5033547;28;45411;-69
2022/11/13 04:25:06;;;;;;;;;37.50;33.25;;;;;11.02;75.88;101943.09;5032755;28;46132;-68
2022/11/13 04:27:32;;;;;;;;;39.75;36.50;;;;;10.82;75.77;101904.75;5033311;28;45575;-68
2022/11/13 04:29:57;;;;;;;;;32.25;30.00;;;;;11.06;75.43;101945.56;5032644;28;45398;-68
2022/11/13 04:32:22;;;;;;;;;34.25;31.00;;;;;10.67;75.00;101876.91;5032181;28;45441;-68
2022/11/13 04:34:48;;;;;;;;;27.50;26.25;;;;;10.66;76.02;101882.31;5033323;27;46223;-68
2022/11/13 04:37:13;;;;;;;;;31.75;31.50;;;;;10.94;75.74;101911.38;5032910;28;45331;-68
2022/11/13 04:39:39;;;;;;;;;37.00;32.00;;;;;11.05;76.12;101916.25;5033180;28;45268;-68
2022/11/13 04:44:48;;;;;;;;;33.25;27.75;;;;;11.23;75.91;101930.66;5032775;28;45440;-68
2022/11/13 04:47:13;;;;;;;;;38.25;31.50;;;;;11.09;75.78;101913.41;5014710;28;45313;-68
2022/11/13 04:49:39;;;;;;;;;33.00;28.75;;;;;10.92;76.24;101876.75;5033070;27;45229;-69
2022/11/13 04:52:04;;;;;;;;;30.25;29.25;;;;;11.25;76.51;101926.94;5032899;28;45324;-69
2022/11/13 04:54:29;;;;;;;;;33.25;29.75;;;;;11.14;76.33;101913.22;5032678;27;45493;-69
2022/11/13 04:56:55;;;;;;;;;34.50;31.50;;;;;11.20;76.65;101909.41;5014687;28;45275;-67
2022/11/13 04:59:20;;;;;;;;;33.25;33.00;;;;;11.27;75.98;101916.22;5032753;28;45303;-68
2022/11/13 05:01:46;;;;;;;;;28.75;28.75;;;;;11.32;76.19;101929.38;5014705;28;45347;-69
2022/11/13 05:04:13;;;;;;;;;32.50;25.75;;;;;11.24;76.80;101911.00;5031905;28;46477;-68
2022/11/13 05:06:38;;;;;;;;;30.50;29.50;;;;;11.28;77.53;101907.25;5032408;28;45456;-70
2022/11/13 05:09:04;;;;;;;;;25.75;24.50;;;;;11.26;78.39;101903.78;5030335;28;45881;-70
2022/11/13 05:11:29;;;;;;;;;21.75;18.25;;;;;11.35;77.99;101924.78;5031424;28;45618;-70
2022/11/13 05:13:54;;;;;;;;;19.00;19.00;;;;;11.28;78.48;101909.94;5030754;28;46217;-70
2022/11/13 05:16:20;;;;;;;;;21.75;19.00;;;;;11.26;78.29;101890.44;5030456;27;45446;-70
2022/11/13 05:18:46;;;;;;;;;22.00;22.00;;;;;11.19;78.90;101876.50;5013380;28;45437;-70
2022/11/13 05:21:11;;;;;;;;;18.50;17.50;;;;;11.27;78.43;101892.19;5012864;28;45625;-69
2022/11/13 05:23:37;;;;;;;;;16.50;14.50;;;;;11.16;78.53;101867.72;5030860;28;46518;-69
2022/11/13 05:26:08;;;;;;;;;26.00;23.00;;;;;11.46;79.19;101916.28;5029369;28;45384;-69
2022/11/13 05:28:34;;;;;;;;;25.75;22.25;;;;;11.09;79.04;101849.31;5031154;28;45562;-68
2022/11/13 05:31:08;;;;;;;;;26.75;20.75;;;;;11.33;79.13;101888.38;5031278;28;45558;-69
2022/11/13 05:33:35;;;;;;;;;24.25;22.25;;;;;11.42;78.89;101896.84;5030846;28;47639;-68
2022/11/13 05:36:06;;;;;;;;;31.00;25.50;;;;;11.52;78.29;101909.78;5030066;28;45498;-69
2022/11/13 05:38:32;;;;;;;;;20.75;20.75;;;;;11.38;79.28;101878.34;5030844;28;45496;-69
2022/11/13 05:41:05;;;;;;;;;28.50;27.25;;;;;11.34;78.94;101879.44;5030250;28;45534;-68
2022/11/13 05:43:31;;;;;;;;;35.00;31.50;;;;;11.42;79.22;101896.84;5029460;27;48320;-68
2022/11/13 05:46:14;;;;;;;;;35.75;30.50;;;;;11.35;78.81;101876.69;5030289;28;45607;-68
2022/11/13 05:48:40;;;;;;;;;30.75;29.25;;;;;11.55;79.03;101896.28;5029815;28;45431;-69
2022/11/13 05:51:19;;;;;;;;;31.25;27.75;;;;;11.54;78.58;101897.22;5012558;28;45544;-69
2022/11/13 05:53:45;;;;;;;;;37.25;34.00;;;;;11.48;79.23;101892.16;5030225;28;46189;-69
2022/11/13 05:56:17;;;;;;;;;34.25;33.25;;;;;11.52;79.14;101896.44;5030450;28;45442;-69
2022/11/13 05:58:43;;;;;;;;;29.25;27.25;;;;;11.49;79.09;101880.53;5030643;28;45678;-69
2022/11/13 06:01:16;;;;;;;;;30.75;29.00;;;;;11.53;78.96;101882.13;5029775;28;45512;-69
2022/11/13 06:03:42;;;;;;;;;38.00;33.75;;;;;11.35;78.47;101843.75;5030362;28;46402;-68
2022/11/13 06:06:11;;;;;;;;;31.25;29.75;;;;;11.49;78.31;101884.06;5030525;28;45418;-69
2022/11/13 06:08:38;;;;;;;;;27.00;26.75;;;;;11.51;78.29;101870.63;5030288;28;45539;-69
2022/11/13 06:11:09;;;;;;;;;33.25;32.50;;;;;11.44;78.45;101859.34;5024041;28;45575;-68
2022/11/13 06:13:35;;;;;;;;;35.25;30.50;;;;;11.27;77.51;101830.75;5025099;28;45858;-68
2022/11/13 06:16:12;;;;;;;;;25.00;22.00;;;;;11.43;78.08;101866.53;5030059;28;45726;-69
2022/11/13 06:18:40;;;;;;;;;28.50;26.25;;;;;11.33;77.78;101849.16;5030302;28;45397;-68
2022/11/13 06:21:12;;;;;;;;;24.50;23.00;;;;;11.37;77.79;101861.44;5029752;28;45516;-69
2022/11/13 06:23:38;;;;;;;;;18.25;17.25;;;;;11.36;77.28;101853.50;5011377;28;45714;-68
2022/11/13 06:26:11;;;;;;;;;21.25;20.75;;;;;11.33;77.77;101842.97;5029630;28;45455;-68
2022/11/13 06:28:37;;;;;;;;;23.25;20.50;;;;;11.30;77.29;101846.63;5019870;27;45432;-70
2022/11/13 06:31:04;;;;;;;;;25.00;25.00;;;;;11.28;77.25;101845.81;5010074;28;45435;-70
2022/11/13 06:33:29;;;;;;;;;24.25;22.50;;;;;11.18;77.63;101842.69;5011431;28;45261;-70
2022/11/13 06:35:55;;;;;;;;;27.75;24.25;;;;;11.11;77.58;101836.75;5026951;27;45299;-70
2022/11/13 06:38:20;;;;;;;;;22.25;19.25;;;;;11.15;78.20;101840.16;5011915;27;45172;-70
2022/11/13 06:40:45;;;;;;;;;24.00;21.25;;;;;11.18;77.45;101848.03;4993562;28;45673;-69
2022/11/13 06:43:11;;;;;;;;;25.50;25.00;;;;;11.19;77.70;101847.09;5011202;27;45548;-69
2022/11/13 06:45:36;;;;;;;;;24.50;23.75;;;;;11.11;77.32;101835.91;5019499;28;45357;-70
2022/11/13 06:48:02;;;;;;;;;29.00;28.75;;;;;11.16;77.26;101843.69;5012055;28;45659;-70
2022/11/13 06:50:27;;;;;;;;;25.50;24.00;;;;;11.15;77.53;101837.50;5011551;28;45573;-69
2022/11/13 06:52:53;;;;;;;;;28.25;25.00;;;;;11.09;77.37;101833.31;4992911;28;45460;-69
2022/11/13 06:55:18;;;;;;;;;26.00;24.75;;;;;11.02;77.69;101823.81;5097468;27;45586;-69
2022/11/13 06:57:44;;;;;;;;;24.00;21.75;;;;;10.99;77.73;101815.94;5012122;28;45387;-69
2022/11/13 07:00:10;;;;;;;;;25.75;24.00;;;;;11.04;77.22;101823.72;5044808;27;45406;-69
2022/11/13 07:02:35;;;;;;;;;25.75;25.50;;;;;10.98;77.16;101811.53;5031339;28;45486;-69
2022/11/13 07:05:01;;;;;;;;;24.75;22.00;;;;;11.06;76.78;101833.41;5030022;28;45386;-69
2022/11/13 07:07:26;;;;;;;;;24.50;23.25;;;;;10.98;77.53;101824.03;5032056;28;45347;-69
2022/11/13 07:09:51;;;;;;;;;25.00;23.25;;;;;10.99;77.03;101823.94;5031811;28;45333;-68
2022/11/13 07:12:17;;;;;;;;;25.25;25.25;;;;;10.10;77.47;101672.06;5031225;28;47356;-69
2022/11/13 07:14:42;;;;;;;;;23.50;23.50;;;;;10.83;77.52;101804.22;5031562;28;45409;-68
2022/11/13 07:17:07;;;;;;;;;26.50;24.50;;;;;10.36;77.25;101727.94;5031016;28;45430;-68
2022/11/13 07:19:32;;;;;;;;;24.00;24.00;;;;;10.96;77.33;101828.56;5030747;28;45510;-69
2022/11/13 07:21:58;;;;;;;;;25.00;25.00;;;;;11.03;77.17;101846.06;5030607;28;45408;-70
2022/11/13 07:24:23;;;;;;;;;24.25;24.25;;;;;10.76;77.09;101801.78;5030574;28;45696;-70
2022/11/13 07:26:49;;;;;;;;;25.00;23.25;;;;;10.96;76.91;101826.78;5028191;28;45523;-69
2022/11/13 07:29:14;;;;;;;;;29.00;27.50;;;;;10.96;76.63;101826.78;5026805;28;45430;-70
2022/11/13 07:31:40;;;;;;;;;22.00;22.00;;;;;10.98;76.90;101827.56;5031308;28;45562;-70
2022/11/13 07:34:05;;;;;;;;;22.75;21.00;;;;;10.84;76.42;101805.94;5013219;28;45491;-70
2022/11/13 07:36:30;;;;;;;;;26.00;26.00;;;;;10.86;76.51;101801.41;5031174;28;45495;-69
2022/11/13 07:38:55;;;;;;;;;23.00;20.50;;;;;10.94;76.57;101820.63;5032144;28;45498;-69
2022/11/13 07:41:21;;;;;;;;;22.75;21.75;;;;;11.00;76.31;101822.13;5034145;28;45694;-69
2022/11/13 07:43:46;;;;;;;;;28.25;22.00;;;;;10.34;76.25;101711.97;5033970;28;45371;-69
2022/11/13 07:46:11;;;;;;;;;21.75;21.75;;;;;10.94;76.77;101809.94;5034233;28;45425;-69
2022/11/13 07:48:37;;;;;;;;;19.00;18.00;;;;;11.05;76.30;101825.47;5034249;27;45435;-70
2022/11/13 07:51:03;;;;;;;;;19.50;18.75;;;;;10.68;76.68;101766.56;5034178;28;47038;-69
2022/11/13 07:53:29;;;;;;;;;19.25;16.75;;;;;11.08;76.23;101825.34;5033739;28;45659;-70
2022/11/13 07:55:54;;;;;;;;;17.50;15.75;;;;;11.01;76.30;101807.84;5034109;28;45330;-69
2022/11/13 07:58:20;;;;;;;;;22.25;20.25;;;;;11.15;76.69;101826.81;5033830;28;45395;-69
2022/11/13 08:00:45;;;;;;;;;18.00;18.00;;;;;10.97;76.59;101788.44;5032487;28;47323;-69
2022/11/13 08:03:13;;;;;;;;;22.25;21.25;;;;;11.08;76.41;101798.63;5032740;28;45372;-69
2022/11/13 08:05:39;;;;;;;;;16.75;16.75;;;;;11.26;76.63;101815.66;5032695;28;45433;-69
2022/11/13 08:08:06;;;;;;;;;23.75;23.75;;;;;11.35;76.08;101819.69;5033848;28;45913;-69
2022/11/13 08:10:31;;;;;;;;;19.75;19.00;;;;;11.20;76.14;101770.50;5033547;27;45362;-70
2022/11/13 08:12:59;;;;;;;;;24.00;23.50;;;;;11.57;76.04;101815.09;5033272;27;45454;-70
2022/11/13 08:15:25;;;;;;;;;24.25;21.75;;;;;11.61;75.66;101803.34;5033551;27;45414;-70
2022/11/13 08:17:56;;;;;;;;;20.50;20.25;;;;;11.71;75.04;101809.09;5032158;28;45423;-69
2022/11/13 08:20:23;;;;;;;;;19.25;19.25;;;;;11.71;75.57;101794.88;5032884;28;46125;-70
2022/11/13 08:22:48;;;;;;;;;23.75;23.75;;;;;11.72;74.93;101788.59;5033825;28;45365;-70
2022/11/13 08:25:14;;;;;;;;;27.25;27.25;;;;;11.71;75.24;101769.00;5033751;27;45364;-69
2022/11/13 08:27:39;;;;;;;;;24.75;22.50;;;;;11.82;74.78;101776.50;5033388;27;45594;-70
2022/11/13 08:30:05;;;;;;;;;24.50;22.00;;;;;11.86;75.40;101775.44;5031825;27;46148;-71
2022/11/13 08:32:31;;;;;;;;;20.75;20.25;;;;;11.15;75.18;101647.91;5033772;28;45515;-71
2022/11/13 08:34:56;;;;;;;;;27.00;24.75;;;;;11.93;74.92;101765.31;5033633;27;45318;-70
2022/11/13 08:37:21;;;;;;;;;29.25;25.25;;;;;12.04;74.93;101783.53;5033394;27;45414;-70
2022/11/13 08:39:47;;;;;;;;;24.75;23.50;;;;;11.74;74.95;101722.56;5033641;27;46368;-72
2022/11/13 08:42:12;;;;;;;;;25.50;24.25;;;;;11.98;74.66;101754.44;5034057;27;45379;-73
2022/11/13 08:44:37;;;;;;;;;24.00;24.00;;;;;12.14;74.50;101775.94;5015540;28;45585;-71
2022/11/13 08:47:03;;;;;;;;;23.00;21.75;;;;;11.98;74.69;101731.22;5032359;27;45297;-72
2022/11/13 08:49:28;;;;;;;;;30.75;26.75;;;;;11.94;74.21;101710.88;5033513;28;45470;-73
2022/11/13 08:51:53;;;;;;;;;30.25;23.25;;;;;12.24;73.77;101758.47;5034027;28;45630;-72
2022/11/13 08:54:19;;;;;;;;;28.50;25.75;;;;;11.40;73.55;101609.31;5033794;27;45423;-74
2022/11/13 08:56:47;;;;;;;;;28.00;24.00;;;;;12.28;73.66;101754.69;5033757;28;45375;-72
2022/11/13 08:59:13;;;;;;;;;29.00;26.00;;;;;12.35;73.67;101772.19;5033630;28;46374;-72
2022/11/13 09:01:38;;;;;;;;;21.75;21.75;;;;;12.37;74.14;101770.28;5015414;27;45360;-71
2022/11/13 09:04:04;;;;;;;;;23.75;22.25;;;;;12.47;73.99;101776.06;5033995;27;45490;-72
2022/11/13 09:06:29;;;;;;;;;22.50;21.25;;;;;12.35;73.66;101744.56;5033162;28;45413;-71
2022/11/13 09:08:55;;;;;;;;;26.00;25.50;;;;;12.60;73.63;101771.78;5051462;27;45393;-74
2022/11/13 09:11:21;;;;;;;;;24.75;24.75;;;;;12.67;73.27;101766.13;5053504;28;45384;-71
2022/11/13 09:13:47;;;;;;;;;28.00;26.25;;;;;12.69;73.79;101769.59;5039393;28;45354;-71
2022/11/13 09:16:13;;;;;;;;;25.50;24.00;;;;;12.76;73.38;101757.63;5032977;28;45367;-71
2022/11/13 09:18:38;;;;;;;;;24.50;22.50;;;;;12.85;73.09;101764.28;5032845;28;45958;-71
2022/11/13 09:21:04;;;;;;;;;22.00;21.50;;;;;12.57;73.57;101701.50;5031029;27;45679;-71
2022/11/13 09:23:29;;;;;;;;;24.25;22.50;;;;;12.98;73.11;101760.00;5032120;28;45331;-71
2022/11/13 09:25:55;;;;;;;;;31.00;28.25;;;;;13.09;72.99;101757.66;5031960;28;45467;-70
2022/11/13 09:28:20;;;;;;;;;23.75;22.75;;;;;12.98;72.64;101719.84;5031112;27;46486;-69
2022/11/13 09:30:46;;;;;;;;;29.50;24.50;;;;;13.27;72.80;101755.78;5025415;27;45475;-71
2022/11/13 09:33:14;;;;;;;;;28.75;27.50;;;;;13.31;72.79;101740.41;5084233;27;45417;-71
2022/11/13 09:35:41;;;;;;;;;24.00;21.75;;;;;13.27;72.71;101725.44;5018913;27;45650;-71
2022/11/13 09:38:11;;;;;;;;;24.75;23.00;;;;;13.33;73.22;101722.41;5087045;27;46655;-71
2022/11/13 09:40:59;;;;;;;;;24.50;24.50;;;;;13.48;72.88;101742.16;5031746;28;45302;-71
2022/11/13 09:43:32;;;;;;;;;25.00;23.50;;;;;13.56;73.23;101739.06;5032145;28;45318;-70
2022/11/13 09:46:10;;;;;;;;;29.25;28.00;;;;;13.39;72.13;101689.94;5031946;28;45349;-70
2022/11/13 09:48:41;;;;;;;;;29.25;26.50;;;;;13.72;72.65;101725.66;5030526;28;45393;-67
2022/11/13 09:51:19;;;;;;;;;23.75;23.75;;;;;13.96;72.04;101732.28;5031066;28;45546;-69
2022/11/13 09:53:45;;;;;;;;;28.00;26.75;;;;;14.15;71.81;101730.38;5031728;28;45367;-69
2022/11/13 09:56:23;;;;;;;;;27.75;26.25;;;;;14.61;70.35;101716.84;5043112;28;45475;-71
2022/11/13 09:59:00;;;;;;;;;24.50;24.50;;;;;15.05;69.25;101725.84;5043180;28;45547;-70
2022/11/13 10:01:50;;;;;;;;;27.75;27.75;;;;;15.35;68.81;101725.72;5027312;27;45479;-71
2022/11/13 10:04:25;;;;;;;;;29.25;25.75;;;;;15.72;67.49;101725.16;5027900;28;45388;-71
2022/11/13 10:07:13;;;;;;;;;24.25;22.50;;;;;16.01;66.49;101712.50;5026546;28;45958;-69
2022/11/13 10:09:54;;;;;;;;;26.25;24.75;;;;;16.17;65.70;101688.13;5027513;28;45383;-68
2022/11/13 10:12:20;;;;;;;;;27.50;25.75;;;;;16.56;64.62;101704.31;5030768;28;45434;-68
2022/11/13 10:14:50;;;;;;;;;19.25;18.50;;;;;16.69;63.71;101704.34;5029891;28;45517;-68
2022/11/13 10:17:30;;;;;;;;;24.50;19.75;;;;;16.76;63.42;101717.28;5031232;28;45421;-68
2022/11/13 10:20:00;;;;;;;;;24.75;24.50;;;;;16.72;62.66;101714.88;5031046;28;45396;-68
2022/11/13 10:22:28;;;;;;;;;25.00;24.00;;;;;16.73;63.16;101709.38;5037100;27;45377;-69
2022/11/13 10:25:18;;;;;;;;;24.25;22.75;;;;;16.61;63.53;101680.63;5031157;28;45637;-71
2022/11/13 10:27:53;;;;;;;;;26.75;23.50;;;;;16.70;62.97;101679.97;5031023;28;45313;-71
2022/11/13 10:30:18;;;;;;;;;23.00;22.75;;;;;16.95;64.10;101705.22;5043927;27;47074;-69
2022/11/13 10:32:45;;;;;;;;;27.75;27.00;;;;;16.98;62.56;101715.78;5031104;28;45700;-69
2022/11/13 10:35:35;;;;;;;;;19.75;18.25;;;;;17.03;63.17;101708.22;5038992;28;45519;-69
2022/11/13 10:38:17;;;;;;;;;22.25;21.00;;;;;17.02;62.85;101684.06;5039734;28;45580;-70
2022/11/13 10:40:43;;;;;;;;;21.25;20.25;;;;;16.99;62.91;101671.66;5030717;28;45304;-69
2022/11/13 10:43:14;;;;;;;;;25.00;22.25;;;;;17.15;61.96;101679.50;5028207;28;45406;-72
2022/11/13 10:45:41;;;;;;;;;28.75;26.00;;;;;16.79;62.05;101619.22;5031131;28;45435;-70
2022/11/13 10:48:21;;;;;;;;;19.00;19.00;;;;;17.13;61.16;101676.94;5031108;28;45307;-68
2022/11/13 10:50:56;;;;;;;;;18.50;17.25;;;;;16.97;62.10;101649.38;5015666;28;47147;-72
2022/11/13 10:53:23;;;;;;;;;28.00;25.50;;;;;17.22;61.88;101670.03;5021972;27;45402;-70
2022/11/13 10:55:55;;;;;;;;;28.00;25.25;;;;;17.25;61.94;101655.47;5033541;28;45393;-70
2022/11/13 10:58:20;;;;;;;;;25.25;25.25;;;;;17.37;60.95;101659.06;5037005;28;45372;-69
2022/11/13 11:00:48;;;;;;;;;25.75;23.50;;;;;17.45;61.21;101660.25;5044606;27;46461;-68
2022/11/13 11:03:24;;;;;;;;;21.00;21.00;;;;;17.50;60.52;101654.50;5095426;27;45375;-69
2022/11/13 11:06:01;;;;;;;;;30.50;28.75;;;;;17.56;59.95;101654.06;5033019;28;45485;-71
2022/11/13 11:08:32;;;;;;;;;25.00;24.00;;;;;17.38;60.46;101601.47;5031605;28;45470;-71
2022/11/13 11:13:51;;;;;;;;;22.25;22.25;;;;;17.82;59.96;101637.72;5032547;28;45282;-71
2022/11/13 11:16:25;;;;;;;;;27.50;23.00;;;;;17.92;59.83;101632.53;5035582;27;45536;-72